createdAt,value
2023-02-19T00:01:24.521Z,55.24
2023-02-19T00:03:55.832Z,54.97
2023-02-19T00:06:27.522Z,55.08
2023-02-19T00:08:58.363Z,55.20
2023-02-19T00:11:29.704Z,55.25
2023-02-19T00:14:00.932Z,55.17
2023-02-19T00:16:32.653Z,55.19
2023-02-19T00:19:03.806Z,55.17
2023-02-19T00:21:34.717Z,55.10
2023-02-19T00:24:06.674Z,55.49
2023-02-19T00:26:37.551Z,55.25
2023-02-19T00:35:54.995Z,55.30
2023-02-19T00:38:25.833Z,55.41
2023-02-19T00:40:56.708Z,55.13
2023-02-19T00:43:31.037Z,55.42
2023-02-19T00:46:17.805Z,55.49
2023-02-19T00:48:54.008Z,55.33
2023-02-19T00:51:25.508Z,55.50
2023-02-19T00:53:56.265Z,55.54
2023-02-19T00:56:27.238Z,55.69
2023-02-19T00:58:58.040Z,55.58
2023-02-19T01:01:29.049Z,55.90
2023-02-19T01:03:59.947Z,55.91
2023-02-19T01:06:32.685Z,55.74
2023-02-19T01:09:03.405Z,56.08
2023-02-19T01:11:34.245Z,55.87
2023-02-19T01:14:05.175Z,56.03
2023-02-19T01:16:36.180Z,56.23
2023-02-19T01:19:09.675Z,56.21
2023-02-19T01:21:41.034Z,56.12
2023-02-19T01:24:11.869Z,56.08
2023-02-19T01:26:42.768Z,56.06
2023-02-19T01:29:13.558Z,56.07
2023-02-19T01:31:44.529Z,56.23
2023-02-19T01:34:15.563Z,56.32
2023-02-19T01:36:46.749Z,56.09
2023-02-19T01:39:17.576Z,56.19
2023-02-19T01:41:48.512Z,56.20
2023-02-19T01:44:36.942Z,56.37
2023-02-19T01:47:07.768Z,56.47
2023-02-19T01:49:39.409Z,56.66
2023-02-19T01:52:11.272Z,56.51
2023-02-19T01:54:42.582Z,56.46
2023-02-19T01:57:13.884Z,56.64
2023-02-19T01:59:44.801Z,56.66
2023-02-19T02:02:15.896Z,56.68
2023-02-19T02:04:47.134Z,56.68
2023-02-19T02:07:37.143Z,56.81
2023-02-19T02:10:24.035Z,56.81
2023-02-19T02:12:58.361Z,56.85
2023-02-19T02:15:30.568Z,56.80
2023-02-19T02:18:03.464Z,56.70
2023-02-19T02:20:41.687Z,56.89
2023-02-19T02:23:15.379Z,56.87
2023-02-19T02:25:53.886Z,56.93
2023-02-19T02:28:28.624Z,56.96
2023-02-19T02:30:59.486Z,57.14
2023-02-19T02:33:32.469Z,57.22
2023-02-19T02:36:05.486Z,57.12
2023-02-19T02:38:37.267Z,57.28
2023-02-19T02:41:08.273Z,57.24
2023-02-19T02:43:39.217Z,57.36
2023-02-19T02:46:11.185Z,57.23
2023-02-19T02:48:42.600Z,57.24
2023-02-19T02:51:15.188Z,57.42
2023-02-19T02:54:05.252Z,57.47
2023-02-19T02:56:36.258Z,57.47
2023-02-19T02:59:08.163Z,57.54
2023-02-19T03:01:57.373Z,57.45
2023-02-19T03:04:29.049Z,57.69
2023-02-19T03:06:59.939Z,57.61
2023-02-19T03:09:32.327Z,57.66
2023-02-19T03:12:21.184Z,57.72
2023-02-19T03:15:10.272Z,57.79
2023-02-19T03:17:59.460Z,57.63
2023-02-19T03:20:30.244Z,57.72
2023-02-19T03:23:01.090Z,57.84
2023-02-19T03:25:49.694Z,57.62
2023-02-19T03:28:21.041Z,57.80
2023-02-19T03:30:52.336Z,57.76
2023-02-19T03:33:23.876Z,57.94
2023-02-19T03:35:55.162Z,57.84
2023-02-19T03:38:26.965Z,57.88
2023-02-19T03:40:58.672Z,57.91
2023-02-19T03:43:35.205Z,57.90
2023-02-19T03:46:08.465Z,57.91
2023-02-19T03:48:39.558Z,57.99
2023-02-19T03:51:29.815Z,58.10
2023-02-19T03:54:03.549Z,58.21
2023-02-19T03:56:35.851Z,58.21
2023-02-19T03:59:10.563Z,58.20
2023-02-19T04:01:42.692Z,58.21
2023-02-19T04:04:16.899Z,58.10
2023-02-19T04:06:48.369Z,58.05
2023-02-19T04:09:19.168Z,58.12
2023-02-19T04:11:50.006Z,58.15
2023-02-19T04:21:22.614Z,58.35
2023-02-19T04:23:53.477Z,58.31
2023-02-19T04:26:24.358Z,58.39
2023-02-19T04:28:55.392Z,58.37
2023-02-19T04:31:26.412Z,58.36
2023-02-19T04:33:57.335Z,58.17
2023-02-19T04:36:28.219Z,58.24
2023-02-19T04:38:59.003Z,58.27
2023-02-19T04:41:29.995Z,58.37
2023-02-19T04:44:00.904Z,58.24
2023-02-19T04:46:31.802Z,58.50
2023-02-19T04:49:02.810Z,58.38
2023-02-19T04:51:33.749Z,58.41
2023-02-19T04:54:04.631Z,58.37
2023-02-19T04:56:35.526Z,58.49
2023-02-19T04:59:06.477Z,58.54
2023-02-19T05:01:37.377Z,58.59
2023-02-19T05:04:08.300Z,58.54
2023-02-19T05:06:39.262Z,58.52
2023-02-19T05:09:10.312Z,58.67
2023-02-19T05:11:41.154Z,58.70
2023-02-19T05:14:11.930Z,58.66
2023-02-19T05:16:43.174Z,58.41
2023-02-19T05:19:14.118Z,58.42
2023-02-19T05:21:45.070Z,58.56
2023-02-19T05:24:15.915Z,58.60
2023-02-19T05:26:48.405Z,58.44
2023-02-19T05:29:19.122Z,58.67
2023-02-19T05:31:50.424Z,58.51
2023-02-19T05:34:21.253Z,58.43
2023-02-19T05:36:52.139Z,58.44
2023-02-19T05:39:23.088Z,58.53
2023-02-19T05:41:54.052Z,58.51
2023-02-19T05:44:25.117Z,58.56
2023-02-19T05:46:56.027Z,58.37
2023-02-19T05:49:27.029Z,58.48
2023-02-19T05:51:57.953Z,58.41
2023-02-19T05:54:31.282Z,58.43
2023-02-19T05:57:02.411Z,58.28
2023-02-19T05:59:33.494Z,58.31
2023-02-19T06:02:04.437Z,58.32
2023-02-19T06:04:35.309Z,58.37
2023-02-19T06:07:06.033Z,58.33
2023-02-19T06:09:36.966Z,58.52
2023-02-19T06:12:08.246Z,58.32
2023-02-19T06:14:39.134Z,58.42
2023-02-19T06:17:10.018Z,58.50
2023-02-19T06:19:40.957Z,58.49
2023-02-19T06:22:11.856Z,58.55
2023-02-19T06:24:42.672Z,58.62
2023-02-19T06:27:13.620Z,58.70
2023-02-19T06:29:44.580Z,58.62
2023-02-19T06:32:15.740Z,58.56
2023-02-19T06:34:46.851Z,58.41
2023-02-19T06:37:17.687Z,58.57
2023-02-19T06:39:48.551Z,58.50
2023-02-19T06:42:19.465Z,58.64
2023-02-19T06:44:50.361Z,58.30
2023-02-19T06:47:22.852Z,58.42
2023-02-19T06:49:55.274Z,58.51
2023-02-19T06:52:26.140Z,58.46
2023-02-19T06:54:56.902Z,58.20
2023-02-19T06:57:32.309Z,58.40
2023-02-19T07:00:04.949Z,58.36
2023-02-19T07:02:35.765Z,58.42
2023-02-19T07:05:07.299Z,58.44
2023-02-19T07:07:40.855Z,58.38
2023-02-19T07:10:13.046Z,58.48
2023-02-19T07:12:44.075Z,58.41
2023-02-19T07:15:16.645Z,58.43
2023-02-19T07:17:47.577Z,58.16
2023-02-19T07:20:18.730Z,58.24
2023-02-19T07:22:49.658Z,58.29
2023-02-19T07:25:20.555Z,58.25
2023-02-19T07:27:51.213Z,58.03
2023-02-19T07:30:22.196Z,58.04
2023-02-19T07:32:52.970Z,58.16
2023-02-19T07:35:23.764Z,57.99
2023-02-19T07:37:54.526Z,57.97
2023-02-19T07:40:25.333Z,57.88
2023-02-19T07:42:56.147Z,57.95
2023-02-19T07:45:27.069Z,57.74
2023-02-19T07:47:57.972Z,57.62
2023-02-19T07:50:28.730Z,57.60
2023-02-19T07:52:59.971Z,57.46
2023-02-19T07:55:30.717Z,57.22
2023-02-19T07:58:01.755Z,57.29
2023-02-19T08:00:32.537Z,57.37
2023-02-19T08:03:03.514Z,57.26
2023-02-19T08:05:35.511Z,57.09
2023-02-19T08:08:06.400Z,56.92
2023-02-19T08:10:54.685Z,57.02
2023-02-19T08:13:25.845Z,56.81
2023-02-19T08:16:07.552Z,56.75
2023-02-19T08:18:45.688Z,56.63
2023-02-19T08:21:18.478Z,56.59
2023-02-19T08:23:51.293Z,56.55
2023-02-19T08:26:22.183Z,56.33
2023-02-19T08:28:52.923Z,56.33
2023-02-19T08:31:23.677Z,56.27
2023-02-19T08:33:54.682Z,56.06
2023-02-19T08:36:25.630Z,55.88
2023-02-19T08:38:56.509Z,55.93
2023-02-19T08:41:27.357Z,55.87
2023-02-19T08:43:58.210Z,55.83
2023-02-19T08:46:29.011Z,55.86
2023-02-19T08:48:59.782Z,55.88
2023-02-19T08:51:30.734Z,55.67
2023-02-19T08:54:03.185Z,55.59
2023-02-19T08:56:34.184Z,55.48
2023-02-19T08:59:05.032Z,55.43
2023-02-19T09:01:35.791Z,55.39
2023-02-19T09:04:06.750Z,55.20
2023-02-19T09:06:39.971Z,55.20
2023-02-19T09:09:11.801Z,55.05
2023-02-19T09:11:42.692Z,54.70
2023-02-19T09:14:13.669Z,54.45
2023-02-19T09:16:44.538Z,54.56
2023-02-19T09:19:15.805Z,54.53
2023-02-19T09:21:46.650Z,54.26
2023-02-19T09:24:17.421Z,54.15
2023-02-19T09:26:48.272Z,54.03
2023-02-19T09:29:19.185Z,53.98
2023-02-19T09:31:49.879Z,54.09
2023-02-19T09:34:20.692Z,53.92
2023-02-19T09:36:51.680Z,53.63
2023-02-19T09:39:22.767Z,53.65
2023-02-19T09:41:54.161Z,53.64
2023-02-19T09:44:27.338Z,53.62
2023-02-19T09:46:58.127Z,53.62
2023-02-19T09:49:29.788Z,53.33
2023-02-19T09:52:02.179Z,53.35
2023-02-19T09:54:33.301Z,53.27
2023-02-19T09:57:07.219Z,52.93
2023-02-19T09:59:39.253Z,52.91
2023-02-19T10:02:14.982Z,52.80
2023-02-19T10:04:46.515Z,52.68
2023-02-19T10:07:19.422Z,52.34
2023-02-19T10:09:52.872Z,52.34
2023-02-19T10:12:27.063Z,52.36
2023-02-19T10:14:59.624Z,51.85
2023-02-19T10:17:31.133Z,51.57
2023-02-19T10:20:03.529Z,51.57
2023-02-19T10:22:34.341Z,51.48
2023-02-19T10:25:05.238Z,51.51
2023-02-19T10:27:36.311Z,51.36
2023-02-19T10:30:08.260Z,51.22
2023-02-19T10:32:42.273Z,50.63
2023-02-19T10:35:14.573Z,50.16
2023-02-19T10:37:46.752Z,50.42
2023-02-19T10:40:19.064Z,50.16
2023-02-19T10:43:13.032Z,49.99
2023-02-19T10:45:55.745Z,49.59
2023-02-19T10:48:33.446Z,49.33
2023-02-19T10:51:08.270Z,49.23
2023-02-19T10:53:47.388Z,49.04
2023-02-19T10:56:40.916Z,49.06
2023-02-19T10:59:23.056Z,49.10
2023-02-19T11:02:18.554Z,49.11
2023-02-19T11:05:06.070Z,48.97
2023-02-19T11:07:39.752Z,48.61
2023-02-19T11:10:21.334Z,48.57
2023-02-19T11:13:38.801Z,48.07
2023-02-19T11:16:20.007Z,47.63
2023-02-19T11:19:06.207Z,47.84
2023-02-19T11:21:42.748Z,47.50
2023-02-19T11:24:15.860Z,47.31
2023-02-19T11:26:57.032Z,47.02
2023-02-19T11:29:34.804Z,47.02
2023-02-19T11:32:25.523Z,46.79
2023-02-19T11:35:08.020Z,46.67
2023-02-19T11:37:38.826Z,46.83
2023-02-19T11:40:13.456Z,47.02
2023-02-19T11:42:45.036Z,46.83
2023-02-19T11:45:19.220Z,46.57
2023-02-19T11:48:12.459Z,46.45
2023-02-19T11:50:48.187Z,46.28
2023-02-19T11:53:21.907Z,46.13
2023-02-19T11:55:55.787Z,46.12
2023-02-19T11:58:40.196Z,46.01
2023-02-19T12:01:14.979Z,45.98
2023-02-19T12:03:54.760Z,45.28
2023-02-19T12:06:30.639Z,45.50
2023-02-19T12:09:06.796Z,45.25
2023-02-19T12:11:48.817Z,45.20
2023-02-19T12:14:32.693Z,45.11
2023-02-19T12:17:09.543Z,44.27
2023-02-19T12:19:43.344Z,44.76
2023-02-19T12:22:21.392Z,44.44
2023-02-19T12:24:57.204Z,44.20
2023-02-19T12:27:29.875Z,43.96
2023-02-19T12:30:17.716Z,43.65
2023-02-19T12:32:58.359Z,43.51
2023-02-19T12:35:45.506Z,43.32
2023-02-19T12:38:22.592Z,43.48
2023-02-19T12:40:58.042Z,43.06
2023-02-19T12:43:47.541Z,43.66
2023-02-19T12:46:23.213Z,43.70
2023-02-19T12:48:56.740Z,43.37
2023-02-19T12:51:48.433Z,42.70
2023-02-19T12:55:12.206Z,42.95
2023-02-19T12:58:15.006Z,42.83
2023-02-19T13:02:31.603Z,42.48
2023-02-19T13:05:02.882Z,42.49
2023-02-19T13:07:34.858Z,42.53
2023-02-19T13:10:08.168Z,42.56
2023-02-19T13:12:39.819Z,42.21
2023-02-19T13:15:15.740Z,42.52
2023-02-19T13:17:47.224Z,42.42
2023-02-19T13:20:19.901Z,42.30
2023-02-19T13:23:09.500Z,42.12
2023-02-19T13:25:44.321Z,42.03
2023-02-19T13:28:21.803Z,42.20
2023-02-19T13:31:12.968Z,41.96
2023-02-19T13:33:46.952Z,41.25
2023-02-19T13:36:18.341Z,41.59
2023-02-19T13:38:49.421Z,41.60
2023-02-19T13:41:29.991Z,41.64
2023-02-19T13:44:02.157Z,41.69
2023-02-19T13:46:38.425Z,41.84
2023-02-19T13:49:42.278Z,41.61
2023-02-19T13:52:30.489Z,41.71
2023-02-19T13:55:14.607Z,41.67
2023-02-19T13:57:47.103Z,41.52
2023-02-19T14:00:31.315Z,41.60
2023-02-19T14:03:15.426Z,41.75
2023-02-19T14:05:59.808Z,41.74
2023-02-19T14:08:50.539Z,41.76
2023-02-19T14:11:41.441Z,41.85
2023-02-19T14:14:28.839Z,41.82
2023-02-19T14:17:04.935Z,41.87
2023-02-19T14:19:51.901Z,41.96
2023-02-19T14:22:40.092Z,41.88
2023-02-19T14:25:16.163Z,41.84
2023-02-19T14:27:47.006Z,41.85
2023-02-19T14:30:17.731Z,41.92
2023-02-19T14:32:54.553Z,41.95
2023-02-19T14:35:31.778Z,41.94
2023-02-19T14:38:02.520Z,41.98
2023-02-19T14:40:34.648Z,41.92
2023-02-19T14:43:05.444Z,41.99
2023-02-19T14:45:42.789Z,41.99
2023-02-19T14:48:16.944Z,42.07
2023-02-19T14:50:58.138Z,42.01
2023-02-19T14:53:29.180Z,42.05
2023-02-19T14:56:00.035Z,42.04
2023-02-19T14:58:32.342Z,42.03
2023-02-19T15:01:03.175Z,42.11
2023-02-19T15:03:35.103Z,42.14
2023-02-19T15:06:06.854Z,42.27
2023-02-19T15:08:42.105Z,42.21
2023-02-19T15:11:13.576Z,42.34
2023-02-19T15:13:45.955Z,42.32
2023-02-19T15:16:20.353Z,42.34
2023-02-19T15:18:52.072Z,42.37
2023-02-19T15:21:25.434Z,42.31
2023-02-19T15:23:56.771Z,42.32
2023-02-19T15:26:31.522Z,42.32
2023-02-19T15:29:02.849Z,42.22
2023-02-19T15:31:33.712Z,42.22
2023-02-19T15:34:04.528Z,42.20
2023-02-19T15:36:35.662Z,42.15
2023-02-19T15:39:06.522Z,42.19
2023-02-19T15:41:37.559Z,42.17
2023-02-19T15:44:12.803Z,42.17
2023-02-19T15:46:44.845Z,42.25
2023-02-19T15:49:17.027Z,42.22
2023-02-19T15:51:48.838Z,42.24
2023-02-19T15:54:20.965Z,42.21
2023-02-19T15:56:58.888Z,42.22
2023-02-19T15:59:30.146Z,42.24
2023-02-19T16:02:01.738Z,42.27
2023-02-19T16:04:32.655Z,42.29
2023-02-19T16:07:03.915Z,42.25
2023-02-19T16:09:35.224Z,42.26
2023-02-19T16:12:18.230Z,42.29
2023-02-19T16:14:49.522Z,42.25
2023-02-19T16:17:23.294Z,42.30
2023-02-19T16:19:55.039Z,42.37
2023-02-19T16:22:26.425Z,42.38
2023-02-19T16:24:57.738Z,42.34
2023-02-19T16:27:32.634Z,42.43
2023-02-19T16:30:04.662Z,42.44
2023-02-19T16:32:35.469Z,42.42
2023-02-19T16:35:07.007Z,42.45
2023-02-19T16:37:40.669Z,42.58
2023-02-19T16:40:41.121Z,42.59
2023-02-19T16:43:28.172Z,42.66
2023-02-19T16:45:58.986Z,42.73
2023-02-19T16:48:29.871Z,42.72
2023-02-19T16:51:01.680Z,42.82
2023-02-19T16:53:33.525Z,42.79
2023-02-19T16:56:04.507Z,42.86
2023-02-19T16:58:38.272Z,42.87
2023-02-19T17:01:11.077Z,42.91
2023-02-19T17:03:42.260Z,42.95
2023-02-19T17:06:13.491Z,43.04
2023-02-19T17:08:44.363Z,43.13
2023-02-19T17:11:15.698Z,43.08
2023-02-19T17:13:46.474Z,43.22
2023-02-19T17:16:19.769Z,43.32
2023-02-19T17:18:50.877Z,43.24
2023-02-19T17:21:22.600Z,43.28
2023-02-19T17:23:54.145Z,43.34
2023-02-19T17:26:25.739Z,43.32
2023-02-19T17:28:56.847Z,43.34
2023-02-19T17:31:27.879Z,43.28
2023-02-19T17:33:59.125Z,43.46
2023-02-19T17:36:31.044Z,43.44
2023-02-19T17:39:02.657Z,43.41
2023-02-19T17:41:33.377Z,43.41
2023-02-19T17:44:04.120Z,43.49
2023-02-19T17:46:35.255Z,43.52
2023-02-19T17:49:07.585Z,43.57
2023-02-19T17:51:38.412Z,43.55
2023-02-19T17:54:09.488Z,43.50
2023-02-19T17:56:43.448Z,43.55
2023-02-19T17:59:15.025Z,43.57
2023-02-19T18:01:47.435Z,43.67
2023-02-19T18:04:18.278Z,43.72
2023-02-19T18:06:49.145Z,43.72
2023-02-19T18:09:21.711Z,43.73
2023-02-19T18:11:52.437Z,43.84
2023-02-19T18:14:23.230Z,43.88
2023-02-19T18:16:54.143Z,43.87
2023-02-19T18:19:26.011Z,44.02
2023-02-19T18:21:56.831Z,44.04
2023-02-19T18:24:27.609Z,44.14
2023-02-19T18:26:58.368Z,44.14
2023-02-19T18:29:31.174Z,44.21
2023-02-19T18:32:02.147Z,44.24
2023-02-19T18:34:32.997Z,44.34
2023-02-19T18:37:04.287Z,44.40
2023-02-19T18:39:35.555Z,44.43
2023-02-19T18:42:06.494Z,44.44
2023-02-19T18:44:37.330Z,44.56
2023-02-19T18:47:08.982Z,44.52
2023-02-19T18:49:42.275Z,44.51
2023-02-19T18:52:13.056Z,44.70
2023-02-19T18:54:44.652Z,44.69
2023-02-19T18:57:15.633Z,44.76
2023-02-19T18:59:46.562Z,44.83
2023-02-19T19:02:17.589Z,44.72
2023-02-19T19:04:51.854Z,44.77
2023-02-19T19:07:22.407Z,44.86
2023-02-19T19:09:53.536Z,44.99
2023-02-19T19:12:26.857Z,45.00
2023-02-19T19:14:57.981Z,45.11
2023-02-19T19:17:28.851Z,45.15
2023-02-19T19:19:59.642Z,45.19
2023-02-19T19:22:30.499Z,45.25
2023-02-19T19:25:01.384Z,45.36
2023-02-19T19:27:32.130Z,45.37
2023-02-19T19:30:03.062Z,45.37
2023-02-19T19:32:34.358Z,45.48
2023-02-19T19:35:05.502Z,45.52
2023-02-19T19:37:36.313Z,45.62
2023-02-19T19:40:11.195Z,45.68
2023-02-19T19:42:44.392Z,45.65
2023-02-19T19:45:15.941Z,45.76
2023-02-19T19:47:46.713Z,45.82
2023-02-19T19:50:18.412Z,45.81
2023-02-19T19:52:49.260Z,45.90
2023-02-19T19:55:21.550Z,45.95
2023-02-19T19:57:54.000Z,46.01
2023-02-19T20:00:25.046Z,46.00
2023-02-19T20:02:55.881Z,46.10
2023-02-19T20:05:26.741Z,46.08
2023-02-19T20:07:57.553Z,46.19
2023-02-19T20:10:28.485Z,46.17
2023-02-19T20:13:00.318Z,46.20
2023-02-19T20:15:31.140Z,46.17
2023-02-19T20:18:02.186Z,46.27
2023-02-19T20:20:32.962Z,46.27
2023-02-19T20:23:03.845Z,46.31
2023-02-19T20:25:34.641Z,46.35
2023-02-19T20:28:05.592Z,46.38
2023-02-19T20:30:37.474Z,46.36
2023-02-19T20:33:08.457Z,46.44
2023-02-19T20:35:39.439Z,46.42
2023-02-19T20:38:10.337Z,46.48
2023-02-19T20:40:41.149Z,46.48
2023-02-19T20:43:11.915Z,46.54
2023-02-19T20:45:45.936Z,46.63
2023-02-19T20:48:17.765Z,46.59
2023-02-19T20:50:49.118Z,46.63
2023-02-19T20:53:19.923Z,46.67
2023-02-19T20:55:50.807Z,46.62
2023-02-19T20:58:21.830Z,46.72
2023-02-19T21:00:53.609Z,46.78
2023-02-19T21:03:24.584Z,46.82
2023-02-19T21:05:55.360Z,46.75
2023-02-19T21:08:26.058Z,46.78
2023-02-19T21:10:57.143Z,46.80
2023-02-19T21:13:30.210Z,46.76
2023-02-19T21:16:01.300Z,46.79
2023-02-19T21:18:32.400Z,46.87
2023-02-19T21:21:03.144Z,46.89
2023-02-19T21:23:34.040Z,46.91
2023-02-19T21:26:04.925Z,47.00
2023-02-19T21:28:36.163Z,46.99
2023-02-19T21:31:07.060Z,47.13
2023-02-19T21:33:38.083Z,47.15
2023-02-19T21:36:10.186Z,47.13
2023-02-19T21:38:41.562Z,47.19
2023-02-19T21:41:12.436Z,47.24
2023-02-19T21:43:43.275Z,47.16
2023-02-19T21:46:20.312Z,47.28
2023-02-19T21:48:51.105Z,47.23
2023-02-19T21:51:23.804Z,47.21
2023-02-19T21:53:54.913Z,47.38
2023-02-19T21:56:26.277Z,47.37
2023-02-19T21:58:57.512Z,47.29
2023-02-19T22:01:29.286Z,47.35
2023-02-19T22:04:00.414Z,47.29
2023-02-19T22:06:31.536Z,47.42
2023-02-19T22:09:02.562Z,47.43
2023-02-19T22:11:33.687Z,47.43
2023-02-19T22:14:04.652Z,47.37
2023-02-19T22:16:35.563Z,47.40
2023-02-19T22:19:06.408Z,47.39
2023-02-19T22:21:37.218Z,47.42
2023-02-19T22:24:08.564Z,47.47
2023-02-19T22:26:39.358Z,47.42
2023-02-19T22:29:11.464Z,47.45
2023-02-19T22:31:42.356Z,47.56
2023-02-19T22:34:13.304Z,47.71
2023-02-19T22:36:44.307Z,47.71
2023-02-19T22:39:18.639Z,47.66
2023-02-19T22:41:49.580Z,47.89
2023-02-19T22:44:20.573Z,47.95
2023-02-19T22:46:52.407Z,47.94
2023-02-19T22:49:23.600Z,48.06
2023-02-19T22:51:55.460Z,48.03
2023-02-19T22:54:27.307Z,48.14
2023-02-19T22:56:58.068Z,48.20
2023-02-19T22:59:28.965Z,48.18
2023-02-19T23:01:59.855Z,48.19
2023-02-19T23:04:30.907Z,48.33
2023-02-19T23:07:01.794Z,48.41
2023-02-19T23:09:32.681Z,48.48
2023-02-19T23:12:03.879Z,48.46
2023-02-19T23:14:34.807Z,48.41
2023-02-19T23:17:05.671Z,48.53
2023-02-19T23:19:36.856Z,48.58
2023-02-19T23:22:07.876Z,48.67
2023-02-19T23:24:38.707Z,48.71
2023-02-19T23:27:09.608Z,48.58
2023-02-19T23:29:40.538Z,48.77
2023-02-19T23:32:11.330Z,48.76
2023-02-19T23:34:42.562Z,48.89
2023-02-19T23:37:13.369Z,48.81
2023-02-19T23:39:44.300Z,49.07
2023-02-19T23:42:16.228Z,49.17
2023-02-19T23:44:48.609Z,49.16
2023-02-19T23:47:20.372Z,49.21
2023-02-19T23:49:51.219Z,49.18
2023-02-19T23:52:22.055Z,49.33
2023-02-19T23:54:53.054Z,49.42
2023-02-19T23:57:23.860Z,49.41
2023-02-19T23:59:54.967Z,49.35
